首页
METAR-TAF:

METAR-TAF

机场 :

Hope, 不列颠哥伦比亚, 加拿大

纬度: 49-22N, 经度: 121-29W, 海拔: 39米

当前天气观测

该预报发布于1小时和7分钟前的04:00 UTC
风速3节,风向东北,在北转东北东转东南之间变化
温度 2°C
湿度 93%
气压 1027 hPa
能見度: 14.5公里
少量云层高于24000英尺

METAR: CYHE 110400Z AUTO 05003KT 030V120 9SM FEW240 02/01 A3032 RMK SLP270

时间: 22:07 (05:07 UTC)


TAF: 丢失

超过4000个机场的气象观测和天气预报(METAR&TAF报告)。

可查询的气象台以黄色和红色小点在地图上表示。

将鼠标移到小点上方,可查看气象台名称。

然后点击查看天气观测和预报。

如需切换地图:点击带黑十字的绿色按钮放大地图;点击带横线的绿色按钮缩小地图;或者点击绿色箭头查看邻近地区的地图。


METAR-TAF: